Time;durP1;ratioP1;P1;durP2;ratioP2;P2;SDS_P1;SDS_P2;PMS_P1;PMS_P2;Temp;Humidity;BMP_temperature;BMP_pressure;BME280_temperature;BME280_humidity;BME280_pressure;Samples;Min_cycle;Max_cycle;Signal;HPM_P1;HPM_P2
2023/04/19 00:01:06;;;;;;;;;;;;;;;27.44;40.11;94422.38;4915718;29;7281;-63
2023/04/19 00:03:41;;;;;;;;;;;;;;;27.43;39.62;94416.09;4907976;29;8271;-64
2023/04/19 00:06:19;;;;;;;;;;;;;;;27.41;40.30;94424.16;4906129;29;8984;-64
2023/04/19 00:09:00;;;;;;;;;;;;;;;27.41;40.05;94424.16;4925132;29;8691;-64
2023/04/19 00:11:44;;;;;;;;;;;;;;;27.42;40.12;94422.13;4911291;29;7001;-64
2023/04/19 00:14:46;;;;;;;;;;;;;;;27.42;40.23;94424.91;4917507;29;9156;-64
2023/04/19 00:17:32;;;;;;;;;;;;;;;27.40;40.12;94419.91;4886665;29;7249;-64
2023/04/19 00:20:19;;;;;;;;;;;;;;;27.39;40.14;94415.66;4920413;28;7295;-64
2023/04/19 00:22:47;;;;;;;;;;;;;;;27.39;39.80;94420.41;4917088;29;7037;-64
2023/04/19 00:25:15;;;;;;;;;;;;;;;27.37;40.22;94415.41;4934458;29;7777;-64
2023/04/19 00:27:41;;;;;;;;;;;;;;;27.38;40.45;94422.41;4934399;29;8980;-64
2023/04/19 00:30:26;;;;;;;;;;;;;;;27.38;40.15;94416.91;4950053;28;9011;-63
2023/04/19 00:33:11;;;;;;;;;;;;;;;27.38;39.68;94421.69;4932108;28;9236;-64
2023/04/19 00:35:43;;;;;;;;;;;;;;;27.34;39.90;94413.66;4947855;28;7369;-64
2023/04/19 00:38:19;;;;;;;;;;;;;;;27.36;40.34;94418.72;4940545;28;7256;-64
2023/04/19 00:40:59;;;;;;;;;;;;;;;27.36;40.52;94413.19;4952096;28;7025;-64
2023/04/19 00:43:35;;;;;;;;;;;;;;;27.35;40.15;94417.19;4933720;29;7484;-64
2023/04/19 00:46:01;;;;;;;;;;;;;;;27.34;40.07;94415.69;4945895;28;9123;-63
2023/04/19 00:48:58;;;;;;;;;;;;;;;27.33;40.31;94403.91;4951531;29;9043;-64
2023/04/19 00:51:27;;;;;;;;;;;;;;;27.34;40.10;94413.66;4932027;28;9413;-64
2023/04/19 00:53:57;;;;;;;;;;;;;;;27.33;40.24;94414.19;4987919;28;7198;-64
2023/04/19 00:56:26;;;;;;;;;;;;;;;27.31;40.21;94403.69;4955576;28;7025;-64
2023/04/19 00:58:53;;;;;;;;;;;;;;;27.31;40.25;94406.44;4970778;28;9146;-64
2023/04/19 01:01:42;;;;;;;;;;;;;;;27.29;39.82;94403.44;4970778;28;8597;-64
2023/04/19 01:04:18;;;;;;;;;;;;;;;27.29;40.05;94405.47;4956518;28;7227;-64
2023/04/19 01:06:56;;;;;;;;;;;;;;;27.27;40.18;94406.00;4956426;28;9077;-64
2023/04/19 01:09:39;;;;;;;;;;;;;;;27.28;40.02;94396.41;4952607;28;7192;-64
2023/04/19 01:12:15;;;;;;;;;;;;;;;27.28;40.61;94404.72;4979255;28;9048;-64
2023/04/19 01:14:51;;;;;;;;;;;;;;;27.27;40.30;94402.47;4985766;28;6998;-64
2023/04/19 01:17:18;;;;;;;;;;;;;;;27.27;40.13;94399.72;4995269;28;7047;-64
2023/04/19 01:19:49;;;;;;;;;;;;;;;27.28;40.15;94406.72;4975774;28;8755;-64
2023/04/19 01:22:51;;;;;;;;;;;;;;;27.26;40.17;94401.72;4950205;28;7363;-63
2023/04/19 01:25:37;;;;;;;;;;;;;;;27.24;40.20;94397.97;4937286;28;9100;-64
2023/04/19 01:28:24;;;;;;;;;;;;;;;27.23;40.32;94397.22;4979616;28;9133;-64
2023/04/19 01:31:01;;;;;;;;;;;;;;;27.24;40.09;94400.75;5016901;28;7125;-64
2023/04/19 01:33:31;;;;;;;;;;;;;;;27.24;40.69;94390.44;5030655;28;8655;-64
2023/04/19 01:36:23;;;;;;;;;;;;;;;27.24;40.51;94390.44;5033969;28;9047;-63
2023/04/19 01:39:04;;;;;;;;;;;;;;;27.22;40.26;94387.47;5022045;28;8988;-63
2023/04/19 01:41:30;;;;;;;;;;;;;;;27.20;40.25;94378.97;4998591;28;7296;-64
2023/04/19 01:43:56;;;;;;;;;;;;;;;27.21;40.22;94388.00;5033964;28;7043;-63
2023/04/19 01:46:22;;;;;;;;;;;;;;;27.20;40.39;94384.47;5030329;28;7252;-64
2023/04/19 01:48:48;;;;;;;;;;;;;;;27.22;40.43;94386.72;5027342;28;8910;-63
2023/04/19 01:51:16;;;;;;;;;;;;;;;27.21;39.75;94383.19;5030483;28;9061;-64
2023/04/19 01:53:45;;;;;;;;;;;;;;;27.20;40.20;94378.97;5004341;28;9066;-64
2023/04/19 01:56:11;;;;;;;;;;;;;;;27.21;40.22;94383.19;5014569;28;7504;-64
2023/04/19 01:58:51;;;;;;;;;;;;;;;27.17;40.14;94380.00;5018678;28;7017;-63
2023/04/19 02:01:19;;;;;;;;;;;;;;;27.20;40.09;94386.50;5027353;28;9067;-63
2023/04/19 02:03:48;;;;;;;;;;;;;;;27.20;40.02;94378.97;5034139;28;9006;-63
2023/04/19 02:06:19;;;;;;;;;;;;;;;27.20;40.47;94378.22;5050884;28;7108;-64
2023/04/19 02:08:55;;;;;;;;;;;;;;;27.18;40.33;94370.47;5035705;28;9062;-64
2023/04/19 02:11:37;;;;;;;;;;;;;;;27.19;40.44;94371.19;5034476;28;8975;-64
2023/04/19 02:14:36;;;;;;;;;;;;;;;27.19;40.44;94376.69;5031590;28;6863;-63
2023/04/19 02:17:20;;;;;;;;;;;;;;;27.16;39.90;94367.47;4990839;28;9116;-64
2023/04/19 02:19:47;;;;;;;;;;;;;;;27.16;40.41;94366.72;4987393;28;9032;-64
2023/04/19 02:22:29;;;;;;;;;;;;;;;27.16;40.20;94377.75;4982229;28;7271;-64
2023/04/19 02:24:54;;;;;;;;;;;;;;;27.15;40.28;94371.50;4991917;28;8691;-64
2023/04/19 02:27:49;;;;;;;;;;;;;;;27.15;40.02;94368.72;4975398;28;7004;-63
2023/04/19 02:30:36;;;;;;;;;;;;;;;27.14;40.14;94370.00;4987870;28;7046;-64
2023/04/19 02:33:05;;;;;;;;;;;;;;;27.14;40.61;94367.25;4979234;28;7285;-64
2023/04/19 02:35:50;;;;;;;;;;;;;;;27.15;40.43;94365.22;4976557;28;9008;-64
2023/04/19 02:38:22;;;;;;;;;;;;;;;27.12;40.04;94364.22;4988531;28;7120;-64
2023/04/19 02:40:50;;;;;;;;;;;;;;;27.13;40.78;94367.75;4973092;28;8726;-64
2023/04/19 02:43:45;;;;;;;;;;;;;;;27.11;40.20;94365.53;4977718;28;9429;-64
2023/04/19 02:46:30;;;;;;;;;;;;;;;27.11;40.36;94373.81;4930011;28;7612;-64
2023/04/19 02:48:59;;;;;;;;;;;;;;;27.08;40.47;94358.25;4918718;29;7090;-63
2023/04/19 02:51:26;;;;;;;;;;;;;;;27.11;40.16;94367.53;4941653;28;7024;-64
2023/04/19 02:53:52;;;;;;;;;;;;;;;27.08;40.50;94355.50;4971122;28;7612;-64
2023/04/19 02:56:19;;;;;;;;;;;;;;;27.08;40.41;94363.06;4978626;28;7233;-64
2023/04/19 02:59:22;;;;;;;;;;;;;;;27.06;40.62;94358.03;4983448;28;9825;-64
2023/04/19 03:01:49;;;;;;;;;;;;;;;27.06;40.38;94366.31;4903403;29;7039;-64
2023/04/19 03:04:37;;;;;;;;;;;;;;;27.07;40.42;94356.78;4913899;29;7232;-64
2023/04/19 03:07:10;;;;;;;;;;;;;;;27.06;40.35;94362.81;4914635;29;9148;-64
2023/04/19 03:09:48;;;;;;;;;;;;;;;27.06;39.95;94352.53;4914471;29;9107;-64
2023/04/19 03:12:28;;;;;;;;;;;;;;;27.07;40.09;94356.78;4920747;29;7495;-64
2023/04/19 03:14:54;;;;;;;;;;;;;;;27.06;40.41;94349.75;4900352;29;9139;-64
2023/04/19 03:17:48;;;;;;;;;;;;;;;27.05;40.05;94345.53;4916992;29;8884;-64
2023/04/19 03:20:27;;;;;;;;;;;;;;;27.03;40.27;94356.34;4949340;28;9296;-64
2023/04/19 03:23:25;;;;;;;;;;;;;;;27.00;40.06;94351.09;4927666;29;8710;-64
2023/04/19 03:26:00;;;;;;;;;;;;;;;27.03;40.10;94355.59;4912394;29;9249;-63
2023/04/19 03:28:30;;;;;;;;;;;;;;;27.02;40.44;94356.84;4913960;29;7685;-64
2023/04/19 03:30:57;;;;;;;;;;;;;;;27.01;40.24;94358.13;4928249;29;7215;-64
2023/04/19 03:33:27;;;;;;;;;;;;;;;27.02;40.15;94356.84;4914403;29;7365;-64
2023/04/19 03:35:53;;;;;;;;;;;;;;;27.01;40.48;94355.38;4940886;28;7319;-64
2023/04/19 03:38:19;;;;;;;;;;;;;;;27.01;40.69;94358.13;5001393;28;7001;-64
2023/04/19 03:40:47;;;;;;;;;;;;;;;27.02;40.90;94345.81;4982017;28;7211;-63
2023/04/19 03:43:15;;;;;;;;;;;;;;;27.00;40.23;94345.56;4970501;28;9048;-63
2023/04/19 03:45:41;;;;;;;;;;;;;;;26.98;40.49;94346.09;4969614;28;7198;-63
2023/04/19 03:48:12;;;;;;;;;;;;;;;26.99;40.26;94347.59;4972579;28;7473;-64
2023/04/19 03:50:40;;;;;;;;;;;;;;;26.99;39.88;94344.81;5005425;28;9602;-64
2023/04/19 03:53:06;;;;;;;;;;;;;;;26.97;40.33;94341.84;4970448;28;7045;-64
2023/04/19 03:55:42;;;;;;;;;;;;;;;26.97;40.26;94338.34;4974364;28;7433;-64
2023/04/19 03:58:21;;;;;;;;;;;;;;;26.98;39.71;94340.59;4985182;28;7247;-63
2023/04/19 04:01:01;;;;;;;;;;;;;;;26.95;40.60;94338.13;4991990;28;9322;-64
2023/04/19 04:03:36;;;;;;;;;;;;;;;26.97;39.96;94341.13;5025659;28;7033;-64
2023/04/19 04:06:11;;;;;;;;;;;;;;;26.96;40.25;94336.84;5032471;28;9412;-64
2023/04/19 04:08:48;;;;;;;;;;;;;;;26.96;39.90;94343.13;5033675;28;7016;-63
2023/04/19 04:11:24;;;;;;;;;;;;;;;26.92;39.73;94333.66;5018276;28;7011;-63
2023/04/19 04:13:50;;;;;;;;;;;;;;;26.96;40.43;94345.13;5042791;28;7465;-64
2023/04/19 04:16:17;;;;;;;;;;;;;;;26.94;39.83;94334.63;5028569;28;7242;-64
2023/04/19 04:18:43;;;;;;;;;;;;;;;26.95;40.30;94341.63;5020629;28;7327;-64
2023/04/19 04:21:11;;;;;;;;;;;;;;;26.93;40.12;94346.91;5026568;28;8992;-63
2023/04/19 04:23:40;;;;;;;;;;;;;;;26.93;40.10;94349.69;5029828;28;7299;-64
2023/04/19 04:26:24;;;;;;;;;;;;;;;26.94;40.16;94351.19;5030586;28;9380;-63
2023/04/19 04:29:03;;;;;;;;;;;;;;;26.94;39.96;94353.19;5032761;28;8998;-63
2023/04/19 04:31:31;;;;;;;;;;;;;;;26.93;40.75;94352.44;5031618;28;7133;-63
2023/04/19 04:34:24;;;;;;;;;;;;;;;26.92;40.14;94352.97;5033398;28;7504;-63
2023/04/19 04:36:52;;;;;;;;;;;;;;;26.90;40.28;94356.97;4972760;28;8972;-64
2023/04/19 04:39:23;;;;;;;;;;;;;;;26.88;40.26;94351.22;4972120;28;6944;-63
2023/04/19 04:42:08;;;;;;;;;;;;;;;26.88;40.55;94358.78;4969870;28;7228;-64
2023/04/19 04:45:05;;;;;;;;;;;;;;;26.90;40.22;94356.25;4969643;28;9291;-64
2023/04/19 04:47:50;;;;;;;;;;;;;;;26.85;39.64;94354.31;4937076;29;9130;-64
2023/04/19 04:50:16;;;;;;;;;;;;;;;26.87;40.43;94362.81;4948843;29;7057;-63
2023/04/19 04:52:52;;;;;;;;;;;;;;;26.87;39.75;94357.28;4932321;29;7101;-64
2023/04/19 04:55:33;;;;;;;;;;;;;;;26.87;40.43;94357.28;4945320;29;7203;-63
2023/04/19 04:58:01;;;;;;;;;;;;;;;26.86;39.92;94356.53;4951971;28;8236;-64
2023/04/19 05:00:57;;;;;;;;;;;;;;;26.85;40.78;94365.34;4940335;29;7038;-64
2023/04/19 05:03:25;;;;;;;;;;;;;;;26.86;40.86;94358.56;4897219;29;7679;-64
2023/04/19 05:06:03;;;;;;;;;;;;;;;26.85;40.63;94357.06;4880085;29;9467;-63
2023/04/19 05:08:34;;;;;;;;;;;;;;;26.85;40.08;94359.81;4879513;29;8705;-64
2023/04/19 05:11:04;;;;;;;;;;;;;;;26.82;40.09;94356.09;4891961;29;9072;-64
2023/04/19 05:13:33;;;;;;;;;;;;;;;26.84;40.68;94355.56;4926338;29;7117;-64
2023/04/19 05:16:19;;;;;;;;;;;;;;;26.84;40.49;94358.31;4960954;28;7025;-63
2023/04/19 05:18:45;;;;;;;;;;;;;;;26.83;40.61;94354.81;4951702;29;8758;-64
2023/04/19 05:21:24;;;;;;;;;;;;;;;26.82;40.43;94358.09;4943033;28;9019;-64
2023/04/19 05:23:52;;;;;;;;;;;;;;;26.82;40.87;94358.09;4959219;28;8073;-64
2023/04/19 05:26:26;;;;;;;;;;;;;;;26.82;40.56;94358.09;4951292;28;9264;-64
2023/04/19 05:28:52;;;;;;;;;;;;;;;26.78;40.68;94365.91;4951381;28;7293;-64
2023/04/19 05:31:19;;;;;;;;;;;;;;;26.77;40.89;94359.63;4969233;28;7104;-64
2023/04/19 05:33:46;;;;;;;;;;;;;;;26.77;40.85;94362.41;4967744;28;8291;-63
2023/04/19 05:36:12;;;;;;;;;;;;;;;26.78;40.64;94354.88;4970498;28;7268;-63
2023/04/19 05:38:47;;;;;;;;;;;;;;;26.78;40.33;94358.38;4957363;28;9089;-64
2023/04/19 05:41:14;;;;;;;;;;;;;;;26.81;40.54;94359.38;5025761;28;7049;-64
2023/04/19 05:43:50;;;;;;;;;;;;;;;26.78;40.25;94357.63;5029405;28;8747;-63
2023/04/19 05:46:18;;;;;;;;;;;;;;;26.76;39.73;94352.66;5030990;28;7192;-63
2023/04/19 05:48:46;;;;;;;;;;;;;;;26.77;39.88;94354.13;5029454;28;9231;-65
2023/04/19 05:51:13;;;;;;;;;;;;;;;26.76;39.65;94357.41;5014037;28;7034;-65
2023/04/19 05:53:50;;;;;;;;;;;;;;;26.73;39.13;94363.97;5026198;28;7266;-64
2023/04/19 05:56:23;;;;;;;;;;;;;;;26.73;38.89;94363.97;5008658;28;9266;-64
2023/04/19 05:58:59;;;;;;;;;;;;;;;26.69;38.54;94352.44;5026481;28;7225;-64
2023/04/19 06:01:25;;;;;;;;;;;;;;;26.71;38.71;94361.69;5019884;28;8721;-64
2023/04/19 06:03:53;;;;;;;;;;;;;;;26.70;38.52;94362.22;5008764;28;9060;-64
2023/04/19 06:06:21;;;;;;;;;;;;;;;26.70;38.82;94365.75;5026432;28;7238;-64
2023/04/19 06:08:50;;;;;;;;;;;;;;;26.68;38.39;94368.28;5012908;28;7519;-63
2023/04/19 06:11:16;;;;;;;;;;;;;;;26.69;38.54;94380.03;5010674;28;8756;-64
2023/04/19 06:13:43;;;;;;;;;;;;;;;26.67;38.35;94371.53;5006387;28;7044;-64
2023/04/19 06:16:12;;;;;;;;;;;;;;;26.66;38.62;94370.03;5027227;28;7273;-64
2023/04/19 06:18:38;;;;;;;;;;;;;;;26.65;38.79;94371.31;5024068;28;9074;-64
2023/04/19 06:21:05;;;;;;;;;;;;;;;26.64;38.76;94365.03;5028481;28;7026;-64
2023/04/19 06:23:31;;;;;;;;;;;;;;;26.63;38.39;94369.06;5007936;28;8648;-64
2023/04/19 06:25:56;;;;;;;;;;;;;;;26.66;38.76;94370.03;5013223;28;7200;-64
2023/04/19 06:28:22;;;;;;;;;;;;;;;26.64;39.13;94365.03;5009779;28;9208;-64
2023/04/19 06:30:48;;;;;;;;;;;;;;;26.63;38.94;94376.59;5012414;28;6991;-64
2023/04/19 06:33:14;;;;;;;;;;;;;;;26.63;38.96;94376.59;5011716;28;7197;-64
2023/04/19 06:35:41;;;;;;;;;;;;;;;26.62;39.27;94373.06;5012234;28;7189;-64
2023/04/19 06:38:07;;;;;;;;;;;;;;;26.63;39.19;94377.34;5004263;28;8958;-64
2023/04/19 06:40:34;;;;;;;;;;;;;;;26.64;39.50;94378.81;5030288;28;7710;-64
2023/04/19 06:42:59;;;;;;;;;;;;;;;26.65;38.77;94385.09;5018789;28;8691;-64
2023/04/19 06:45:28;;;;;;;;;;;;;;;26.65;39.11;94376.81;5010478;28;9053;-64
2023/04/19 06:47:54;;;;;;;;;;;;;;;26.65;39.38;94382.34;5010607;28;8923;-64
2023/04/19 06:50:20;;;;;;;;;;;;;;;26.64;39.54;94381.59;5036169;28;7259;-64
2023/04/19 06:52:46;;;;;;;;;;;;;;;26.63;39.29;94385.63;5021166;28;7083;-64
2023/04/19 06:55:12;;;;;;;;;;;;;;;26.64;39.01;94389.13;5041778;28;7135;-64
2023/04/19 06:57:38;;;;;;;;;;;;;;;26.63;39.41;94384.88;5030274;28;9105;-64
2023/04/19 07:00:05;;;;;;;;;;;;;;;26.67;39.43;94388.09;5028439;28;7212;-64
2023/04/19 07:02:31;;;;;;;;;;;;;;;26.65;39.33;94390.63;5038458;28;9026;-64
2023/04/19 07:04:57;;;;;;;;;;;;;;;26.67;39.77;94388.09;5045214;28;7216;-64
2023/04/19 07:07:29;;;;;;;;;;;;;;;26.65;39.80;94385.84;5061379;28;7032;-64
2023/04/19 07:09:58;;;;;;;;;;;;;;;26.68;39.33;94390.34;5057754;28;9025;-64
2023/04/19 07:12:25;;;;;;;;;;;;;;;26.69;39.85;94388.31;5046927;28;7055;-64
2023/04/19 07:15:01;;;;;;;;;;;;;;;26.68;39.45;94389.59;5014320;28;9541;-64
2023/04/19 07:17:58;;;;;;;;;;;;;;;26.67;39.66;94386.06;5022547;28;7035;-64
2023/04/19 07:20:35;;;;;;;;;;;;;;;26.69;39.20;94385.53;5001024;28;7218;-64
2023/04/19 07:23:01;;;;;;;;;;;;;;;26.66;40.27;94387.34;4973592;28;8613;-65
2023/04/19 07:25:29;;;;;;;;;;;;;;;26.67;39.88;94385.31;4963881;28;8916;-64
2023/04/19 07:28:08;;;;;;;;;;;;;;;26.68;39.55;94392.34;4975133;28;7141;-64
2023/04/19 07:30:44;;;;;;;;;;;;;;;26.69;39.99;94385.53;4973909;28;7026;-64
2023/04/19 07:33:10;;;;;;;;;;;;;;;26.67;39.85;94394.34;4992549;28;9375;-64
2023/04/19 07:35:38;;;;;;;;;;;;;;;26.66;40.10;94384.59;4971099;28;7433;-64
2023/04/19 07:38:06;;;;;;;;;;;;;;;26.64;40.29;94383.63;4999010;28;7689;-64
2023/04/19 07:40:35;;;;;;;;;;;;;;;26.65;40.28;94390.63;5007242;28;7292;-64
2023/04/19 07:43:36;;;;;;;;;;;;;;;26.64;39.72;94378.09;4969678;28;7120;-64
2023/04/19 07:46:15;;;;;;;;;;;;;;;26.65;39.72;94382.34;4955377;28;8212;-64
2023/04/19 07:48:59;;;;;;;;;;;;;;;26.65;39.46;94385.09;4970191;28;7292;-63
2023/04/19 07:51:26;;;;;;;;;;;;;;;26.63;40.27;94382.84;4972420;28;7546;-64
2023/04/19 07:53:52;;;;;;;;;;;;;;;26.64;40.07;94389.13;4953107;28;7268;-64
2023/04/19 07:56:21;;;;;;;;;;;;;;;26.65;40.07;94379.56;4982934;28;9144;-64
2023/04/19 07:58:48;;;;;;;;;;;;;;;26.65;39.73;94379.56;4993860;28;7583;-64
2023/04/19 08:01:14;;;;;;;;;;;;;;;26.65;40.14;94385.84;4985171;28;6977;-64
2023/04/19 08:03:40;;;;;;;;;;;;;;;26.65;39.79;94374.81;4990592;28;10395;-64
2023/04/19 08:06:11;;;;;;;;;;;;;;;26.66;39.89;94379.06;4981877;28;9127;-64
2023/04/19 08:08:37;;;;;;;;;;;;;;;26.67;40.37;94380.56;5006952;28;9036;-64
2023/04/19 08:11:04;;;;;;;;;;;;;;;26.65;40.20;94371.31;4991937;28;7007;-64
2023/04/19 08:13:31;;;;;;;;;;;;;;;26.66;40.16;94378.31;5000170;28;7259;-64
2023/04/19 08:16:08;;;;;;;;;;;;;;;26.66;40.25;94372.81;4997254;28;7676;-64
2023/04/19 08:18:36;;;;;;;;;;;;;;;26.66;39.81;94386.59;4990187;28;7231;-64
2023/04/19 08:21:05;;;;;;;;;;;;;;;26.69;40.15;94383.53;5009535;28;9063;-63
2023/04/19 08:23:33;;;;;;;;;;;;;;;26.70;40.15;94381.53;5029516;28;7300;-63
2023/04/19 08:26:01;;;;;;;;;;;;;;;26.67;40.12;94368.75;5047713;28;7388;-64
2023/04/19 08:28:29;;;;;;;;;;;;;;;26.68;40.56;94376.53;5029226;28;8723;-64
2023/04/19 08:31:05;;;;;;;;;;;;;;;26.73;40.56;94370.22;5022443;28;9365;-65
2023/04/19 08:33:34;;;;;;;;;;;;;;;26.74;40.66;94377.25;5025542;28;7231;-64
2023/04/19 08:36:02;;;;;;;;;;;;;;;26.74;40.85;94376.50;5023304;28;7037;-64
2023/04/19 08:38:28;;;;;;;;;;;;;;;26.71;40.75;94372.72;5020451;28;7046;-64
2023/04/19 08:40:58;;;;;;;;;;;;;;;26.74;40.35;94376.50;5025764;28;8176;-64
2023/04/19 08:43:32;;;;;;;;;;;;;;;26.72;40.29;94371.47;5026251;28;7057;-64
2023/04/19 08:46:02;;;;;;;;;;;;;;;26.76;40.92;94373.97;5031721;28;9522;-64
2023/04/19 08:48:35;;;;;;;;;;;;;;;26.76;40.67;94376.72;5006484;28;9110;-64
2023/04/19 08:51:05;;;;;;;;;;;;;;;26.77;40.35;94372.72;5023424;28;7233;-64
2023/04/19 08:53:32;;;;;;;;;;;;;;;26.76;40.67;94368.44;5029113;28;7170;-64
2023/04/19 08:56:02;;;;;;;;;;;;;;;26.78;41.09;94368.66;5012315;28;9192;-64
2023/04/19 08:58:31;;;;;;;;;;;;;;;26.76;41.00;94368.44;5044935;28;7213;-64
2023/04/19 09:00:58;;;;;;;;;;;;;;;26.73;41.41;94366.75;5023649;28;8714;-64
2023/04/19 09:03:24;;;;;;;;;;;;;;;26.76;41.18;94371.97;5026711;28;7259;-64
2023/04/19 09:05:54;;;;;;;;;;;;;;;26.74;40.84;94373.75;5027525;28;7439;-64
2023/04/19 09:08:31;;;;;;;;;;;;;;;26.74;40.95;94371.75;5017414;28;7518;-64
2023/04/19 09:11:00;;;;;;;;;;;;;;;26.75;41.04;94362.19;5027424;28;7111;-64
2023/04/19 09:13:29;;;;;;;;;;;;;;;26.75;40.97;94364.94;5058250;28;7666;-64
2023/04/19 09:16:03;;;;;;;;;;;;;;;26.71;41.13;94363.69;5031604;28;7668;-64
2023/04/19 09:18:31;;;;;;;;;;;;;;;26.70;41.30;94351.19;5044211;28;6985;-64
2023/04/19 09:21:03;;;;;;;;;;;;;;;26.70;40.95;94360.22;5059828;28;7000;-64
2023/04/19 09:23:31;;;;;;;;;;;;;;;26.73;40.95;94358.47;5027035;28;9038;-63
2023/04/19 09:26:00;;;;;;;;;;;;;;;26.73;40.93;94361.22;5025865;28;7042;-64
2023/04/19 09:28:27;;;;;;;;;;;;;;;26.72;41.28;94351.41;5026048;28;7311;-64
2023/04/19 09:30:57;;;;;;;;;;;;;;;26.73;41.04;94347.44;5024820;28;9103;-64
2023/04/19 09:33:39;;;;;;;;;;;;;;;26.73;41.33;94347.44;5028484;28;8931;-64
2023/04/19 09:36:07;;;;;;;;;;;;;;;26.73;40.77;94350.19;5031648;28;9390;-64
2023/04/19 09:38:52;;;;;;;;;;;;;;;26.75;40.76;94344.91;5045616;28;7026;-64
2023/04/19 09:41:24;;;;;;;;;;;;;;;26.73;40.82;94337.13;5064004;28;7049;-63
2023/04/19 09:43:53;;;;;;;;;;;;;;;26.77;40.79;94347.88;5030751;28;8918;-64
2023/04/19 09:46:51;;;;;;;;;;;;;;;26.78;40.89;94341.06;5034517;28;7024;-64
2023/04/19 09:49:25;;;;;;;;;;;;;;;26.80;40.85;94335.78;5057149;28;8914;-62
2023/04/19 09:51:53;;;;;;;;;;;;;;;26.80;40.63;94336.53;5019716;28;7273;-64
2023/04/19 09:54:33;;;;;;;;;;;;;;;26.79;40.85;94337.81;5028933;28;9458;-64
2023/04/19 09:57:01;;;;;;;;;;;;;;;26.74;41.15;94333.09;5032849;28;7207;-64
2023/04/19 09:59:41;;;;;;;;;;;;;;;26.72;41.13;94329.34;5036152;28;9032;-64
2023/04/19 10:02:12;;;;;;;;;;;;;;;26.74;41.03;94324.06;5029181;28;7332;-64
2023/04/19 10:04:47;;;;;;;;;;;;;;;26.69;41.97;94324.84;5034915;28;9224;-64
2023/04/19 10:07:25;;;;;;;;;;;;;;;26.69;41.05;94324.84;5031850;28;7035;-64
2023/04/19 10:09:55;;;;;;;;;;;;;;;26.70;41.81;94324.34;5029690;28;7503;-63
2023/04/19 10:12:57;;;;;;;;;;;;;;;26.69;41.84;94316.56;5049729;28;7430;-64
2023/04/19 10:16:02;;;;;;;;;;;;;;;26.62;42.39;94312.38;4949230;28;7136;-64
2023/04/19 10:18:52;;;;;;;;;;;;;;;26.58;42.79;94319.47;4935872;29;7251;-64
2023/04/19 10:21:34;;;;;;;;;;;;;;;26.57;42.88;94306.94;4934600;29;7925;-63
2023/04/19 10:24:03;;;;;;;;;;;;;;;26.65;43.04;94313.38;4935712;29;7115;-63
2023/04/19 10:27:01;;;;;;;;;;;;;;;26.67;42.85;94314.34;4932839;29;9363;-63
2023/04/19 10:30:04;;;;;;;;;;;;;;;26.70;42.16;94310.56;4932674;29;7885;-64
2023/04/19 10:32:54;;;;;;;;;;;;;;;26.67;42.42;94297.78;4932511;29;8995;-63
2023/04/19 10:35:23;;;;;;;;;;;;;;;26.71;42.28;94303.00;4919262;29;7143;-64
2023/04/19 10:38:10;;;;;;;;;;;;;;;26.71;42.88;94301.00;4934225;28;9141;-63
2023/04/19 10:40:55;;;;;;;;;;;;;;;26.69;42.62;94298.00;4932101;29;9120;-63
2023/04/19 10:43:23;;;;;;;;;;;;;;;26.70;42.55;94299.50;4916063;29;8996;-62
2023/04/19 10:45:51;;;;;;;;;;;;;;;26.72;42.41;94301.75;4930239;29;6864;-63
2023/04/19 10:48:32;;;;;;;;;;;;;;;26.70;41.90;94296.00;4931586;29;7211;-63
2023/04/19 10:51:18;;;;;;;;;;;;;;;26.72;42.02;94301.75;4954641;28;9027;-64
2023/04/19 10:53:50;;;;;;;;;;;;;;;26.74;41.85;94297.22;5018049;28;9153;-64
2023/04/19 10:56:20;;;;;;;;;;;;;;;26.74;41.57;94294.47;5023587;28;9197;-63
2023/04/19 10:59:01;;;;;;;;;;;;;;;26.75;41.88;94293.19;5057139;28;8753;-63
2023/04/19 11:01:41;;;;;;;;;;;;;;;26.72;41.78;94287.94;5044850;28;8257;-63
2023/04/19 11:04:48;;;;;;;;;;;;;;;26.70;41.55;94284.97;5044537;28;7514;-63
2023/04/19 11:07:14;;;;;;;;;;;;;;;26.69;41.82;94275.94;4970326;28;6960;-63
2023/04/19 11:09:50;;;;;;;;;;;;;;;26.72;42.14;94279.69;4947748;28;8587;-63
2023/04/19 11:12:24;;;;;;;;;;;;;;;26.72;42.19;94276.91;4970981;28;9467;-63
2023/04/19 11:14:58;;;;;;;;;;;;;;;26.74;42.23;94266.88;4969785;28;7093;-63
2023/04/19 11:17:31;;;;;;;;;;;;;;;26.76;42.05;94266.34;4954734;28;7252;-63
2023/04/19 11:20:21;;;;;;;;;;;;;;;26.75;42.11;94268.34;4972581;28;9325;-64
2023/04/19 11:22:53;;;;;;;;;;;;;;;26.77;41.94;94268.59;4963360;28;8944;-63
2023/04/19 11:25:21;;;;;;;;;;;;;;;26.74;42.27;94264.13;4979724;28;9026;-63
2023/04/19 11:27:51;;;;;;;;;;;;;;;26.71;42.28;94256.09;4989642;28;8994;-63
2023/04/19 11:30:21;;;;;;;;;;;;;;;26.75;41.92;94256.59;4953503;28;7364;-64
2023/04/19 11:33:02;;;;;;;;;;;;;;;26.77;41.81;94259.59;4965850;28;7623;-62
2023/04/19 11:35:49;;;;;;;;;;;;;;;26.77;41.61;94254.78;4980516;28;7029;-63
2023/04/19 11:38:27;;;;;;;;;;;;;;;26.78;41.84;94250.03;4986361;28;7294;-63
2023/04/19 11:41:03;;;;;;;;;;;;;;;26.77;41.95;94251.31;4999063;28;7020;-63
2023/04/19 11:43:50;;;;;;;;;;;;;;;26.78;41.79;94250.03;5029649;28;9137;-63
2023/04/19 11:46:19;;;;;;;;;;;;;;;26.78;41.45;94244.50;5031726;28;7269;-64
2023/04/19 11:48:53;;;;;;;;;;;;;;;26.78;41.80;94241.75;5039892;28;7058;-63
2023/04/19 11:51:19;;;;;;;;;;;;;;;26.80;42.04;94244.72;5028320;28;8698;-63
2023/04/19 11:53:47;;;;;;;;;;;;;;;26.80;41.94;94234.44;5042037;28;8449;-63
2023/04/19 11:56:15;;;;;;;;;;;;;;;26.82;41.67;94239.41;5060753;28;9101;-63
2023/04/19 11:58:44;;;;;;;;;;;;;;;26.85;41.32;94235.63;5027308;28;8218;-63
2023/04/19 12:01:12;;;;;;;;;;;;;;;26.83;41.65;94235.41;5024446;28;9223;-63
2023/04/19 12:03:52;;;;;;;;;;;;;;;26.85;41.68;94235.63;5032408;28;7020;-63
2023/04/19 12:06:23;;;;;;;;;;;;;;;26.84;41.92;94237.63;5029978;28;9171;-63
2023/04/19 12:08:54;;;;;;;;;;;;;;;26.86;41.73;94229.59;5056837;28;7267;-64
2023/04/19 12:11:43;;;;;;;;;;;;;;;26.89;41.69;94227.78;5020817;28;7128;-64
2023/04/19 12:14:14;;;;;;;;;;;;;;;26.95;41.33;94225.69;5042742;28;7025;-64
2023/04/19 12:16:43;;;;;;;;;;;;;;;26.94;41.29;94221.47;5010813;28;7276;-64
2023/04/19 12:19:14;;;;;;;;;;;;;;;26.92;41.58;94220.50;5064487;28;7250;-64
2023/04/19 12:21:42;;;;;;;;;;;;;;;27.00;41.41;94216.59;5027806;28;9154;-64
2023/04/19 12:24:15;;;;;;;;;;;;;;;26.94;41.67;94217.94;5048313;28;9174;-64
2023/04/19 12:26:59;;;;;;;;;;;;;;;26.97;41.29;94217.63;5015355;28;9033;-63
2023/04/19 12:29:32;;;;;;;;;;;;;;;26.96;42.03;94215.41;5031853;28;9360;-64
2023/04/19 12:32:03;;;;;;;;;;;;;;;26.88;41.47;94204.25;5044340;28;9327;-64
2023/04/19 12:34:31;;;;;;;;;;;;;;;26.86;41.70;94212.28;5022988;28;8839;-64
2023/04/19 12:37:06;;;;;;;;;;;;;;;26.86;41.89;94212.28;5028193;28;7269;-64
2023/04/19 12:39:45;;;;;;;;;;;;;;;26.84;41.35;94210.03;5025286;28;9399;-64
2023/04/19 12:42:13;;;;;;;;;;;;;;;26.84;41.57;94203.78;5027114;28;8729;-64
2023/04/19 12:44:58;;;;;;;;;;;;;;;26.84;42.07;94209.28;5030959;28;8982;-64
2023/04/19 12:47:52;;;;;;;;;;;;;;;26.83;41.51;94202.28;5037615;28;9353;-63
2023/04/19 12:50:22;;;;;;;;;;;;;;;26.83;41.96;94207.81;4986555;28;7478;-64
2023/04/19 12:52:50;;;;;;;;;;;;;;;26.87;41.80;94205.50;4972743;28;7249;-64
2023/04/19 12:55:16;;;;;;;;;;;;;;;27.02;41.88;94203.00;4984958;28;7472;-65
2023/04/19 12:57:42;;;;;;;;;;;;;;;27.15;41.21;94188.50;4988888;28;7035;-65
2023/04/19 13:00:18;;;;;;;;;;;;;;;27.22;40.89;94196.94;4972001;28;7217;-65
2023/04/19 13:02:46;;;;;;;;;;;;;;;27.23;41.20;94194.94;4980306;28;7042;-63
2023/04/19 13:05:12;;;;;;;;;;;;;;;27.23;40.80;94192.88;4981715;28;8224;-63
2023/04/19 13:07:43;;;;;;;;;;;;;;;27.20;41.34;94185.66;4964215;28;7226;-63
2023/04/19 13:10:22;;;;;;;;;;;;;;;27.17;41.05;94183.19;4971379;28;7136;-64
2023/04/19 13:13:00;;;;;;;;;;;;;;;27.02;41.77;94186.44;4992090;28;7042;-64
2023/04/19 13:15:40;;;;;;;;;;;;;;;27.04;41.46;94175.63;4984372;28;7238;-64
2023/04/19 13:18:07;;;;;;;;;;;;;;;27.01;41.47;94175.94;4979086;28;7270;-64
2023/04/19 13:20:33;;;;;;;;;;;;;;;26.99;41.45;94176.44;4970861;28;7048;-64
2023/04/19 13:23:10;;;;;;;;;;;;;;;26.97;41.47;94165.19;4987950;28;7273;-63
2023/04/19 13:26:10;;;;;;;;;;;;;;;26.98;41.86;94166.69;4974186;28;9132;-62
2023/04/19 13:28:44;;;;;;;;;;;;;;;26.99;41.90;94159.88;4973251;28;9419;-62
2023/04/19 13:31:23;;;;;;;;;;;;;;;27.00;41.55;94163.41;4951566;28;7042;-63
2023/04/19 13:33:55;;;;;;;;;;;;;;;27.05;41.15;94157.81;4957330;28;7055;-63